sensor_id;sensor_type;location;lat;lon;timestamp;temperature;humidity
75321;DHT22;68337;52.196;5.660;2023-03-30T00:01:24;12.30;99.90
75321;DHT22;68337;52.196;5.660;2023-03-30T00:03:50;12.40;99.90
75321;DHT22;68337;52.196;5.660;2023-03-30T00:06:19;12.40;99.90
75321;DHT22;68337;52.196;5.660;2023-03-30T00:08:50;12.40;99.90
75321;DHT22;68337;52.196;5.660;2023-03-30T00:11:22;12.40;99.90
75321;DHT22;68337;52.196;5.660;2023-03-30T00:13:48;12.40;99.90
75321;DHT22;68337;52.196;5.660;2023-03-30T00:16:17;12.50;99.90
75321;DHT22;68337;52.196;5.660;2023-03-30T00:18:43;12.50;99.90
75321;DHT22;68337;52.196;5.660;2023-03-30T00:21:10;12.50;99.90
75321;DHT22;68337;52.196;5.660;2023-03-30T00:23:36;12.40;99.90
75321;DHT22;68337;52.196;5.660;2023-03-30T00:26:02;12.40;99.90
75321;DHT22;68337;52.196;5.660;2023-03-30T00:28:29;12.30;99.90
75321;DHT22;68337;52.196;5.660;2023-03-30T00:30:56;12.30;99.90
75321;DHT22;68337;52.196;5.660;2023-03-30T00:33:22;12.40;99.90
75321;DHT22;68337;52.196;5.660;2023-03-30T00:36:05;12.30;99.90
75321;DHT22;68337;52.196;5.660;2023-03-30T00:38:31;12.30;99.90
75321;DHT22;68337;52.196;5.660;2023-03-30T00:40:59;12.20;99.90
75321;DHT22;68337;52.196;5.660;2023-03-30T00:43:27;12.20;99.90
75321;DHT22;68337;52.196;5.660;2023-03-30T00:45:55;12.20;99.90
75321;DHT22;68337;52.196;5.660;2023-03-30T00:48:41;12.20;99.90
75321;DHT22;68337;52.196;5.660;2023-03-30T00:51:10;12.20;99.90
75321;DHT22;68337;52.196;5.660;2023-03-30T00:53:40;12.30;99.90
75321;DHT22;68337;52.196;5.660;2023-03-30T00:56:08;12.30;99.90
75321;DHT22;68337;52.196;5.660;2023-03-30T00:58:35;12.30;99.90
75321;DHT22;68337;52.196;5.660;2023-03-30T01:01:03;12.30;99.90
75321;DHT22;68337;52.196;5.660;2023-03-30T01:03:33;12.30;99.90
75321;DHT22;68337;52.196;5.660;2023-03-30T01:06:04;12.30;99.90
75321;DHT22;68337;52.196;5.660;2023-03-30T01:08:32;12.40;99.90
75321;DHT22;68337;52.196;5.660;2023-03-30T01:11:02;12.30;99.90
75321;DHT22;68337;52.196;5.660;2023-03-30T01:13:30;12.30;99.90
75321;DHT22;68337;52.196;5.660;2023-03-30T01:37:50;12.10;99.90
75321;DHT22;68337;52.196;5.660;2023-03-30T01:43:01;12.30;99.90
75321;DHT22;68337;52.196;5.660;2023-03-30T01:45:44;12.30;99.90
75321;DHT22;68337;52.196;5.660;2023-03-30T01:51:01;12.30;99.90
75321;DHT22;68337;52.196;5.660;2023-03-30T01:53:53;12.30;99.90
75321;DHT22;68337;52.196;5.660;2023-03-30T01:56:32;12.30;99.90
75321;DHT22;68337;52.196;5.660;2023-03-30T01:59:05;12.20;99.90
75321;DHT22;68337;52.196;5.660;2023-03-30T02:01:34;12.20;99.90
75321;DHT22;68337;52.196;5.660;2023-03-30T02:04:02;12.20;99.90
75321;DHT22;68337;52.196;5.660;2023-03-30T02:06:42;12.10;99.90
75321;DHT22;68337;52.196;5.660;2023-03-30T02:09:14;12.00;99.90
75321;DHT22;68337;52.196;5.660;2023-03-30T02:11:43;12.00;99.90
75321;DHT22;68337;52.196;5.660;2023-03-30T02:14:12;11.90;99.90
75321;DHT22;68337;52.196;5.660;2023-03-30T02:16:48;11.90;99.90
75321;DHT22;68337;52.196;5.660;2023-03-30T02:19:14;11.80;99.90
75321;DHT22;68337;52.196;5.660;2023-03-30T02:21:42;11.70;99.90
75321;DHT22;68337;52.196;5.660;2023-03-30T02:24:18;11.70;99.90
75321;DHT22;68337;52.196;5.660;2023-03-30T02:26:46;11.60;99.90
75321;DHT22;68337;52.196;5.660;2023-03-30T02:29:14;11.60;99.90
75321;DHT22;68337;52.196;5.660;2023-03-30T02:31:44;11.70;99.90
75321;DHT22;68337;52.196;5.660;2023-03-30T02:36:48;11.60;99.90
75321;DHT22;68337;52.196;5.660;2023-03-30T02:42:37;11.40;99.90
75321;DHT22;68337;52.196;5.660;2023-03-30T02:54:07;11.40;99.90
75321;DHT22;68337;52.196;5.660;2023-03-30T02:59:45;11.60;99.90
75321;DHT22;68337;52.196;5.660;2023-03-30T03:02:18;11.70;99.90
75321;DHT22;68337;52.196;5.660;2023-03-30T03:04:48;11.80;99.90
75321;DHT22;68337;52.196;5.660;2023-03-30T03:07:14;11.90;99.90
75321;DHT22;68337;52.196;5.660;2023-03-30T03:09:40;12.00;99.90
75321;DHT22;68337;52.196;5.660;2023-03-30T03:12:07;12.00;99.90
75321;DHT22;68337;52.196;5.660;2023-03-30T03:14:32;12.20;99.90
75321;DHT22;68337;52.196;5.660;2023-03-30T03:16:58;12.30;99.90
75321;DHT22;68337;52.196;5.660;2023-03-30T03:19:24;12.40;99.90
75321;DHT22;68337;52.196;5.660;2023-03-30T03:21:50;12.40;99.90
75321;DHT22;68337;52.196;5.660;2023-03-30T03:24:16;12.50;99.90
75321;DHT22;68337;52.196;5.660;2023-03-30T03:26:45;12.50;99.90
75321;DHT22;68337;52.196;5.660;2023-03-30T03:29:10;12.50;99.90
75321;DHT22;68337;52.196;5.660;2023-03-30T03:31:36;12.50;99.90
75321;DHT22;68337;52.196;5.660;2023-03-30T03:34:02;12.50;99.90
75321;DHT22;68337;52.196;5.660;2023-03-30T03:36:28;12.60;99.90
75321;DHT22;68337;52.196;5.660;2023-03-30T03:38:54;12.60;99.90
75321;DHT22;68337;52.196;5.660;2023-03-30T03:41:20;12.60;99.90
75321;DHT22;68337;52.196;5.660;2023-03-30T03:43:46;12.60;99.90
75321;DHT22;68337;52.196;5.660;2023-03-30T03:46:13;12.60;99.90
75321;DHT22;68337;52.196;5.660;2023-03-30T03:48:38;12.60;99.90
75321;DHT22;68337;52.196;5.660;2023-03-30T03:51:05;12.70;99.90
75321;DHT22;68337;52.196;5.660;2023-03-30T03:53:30;12.70;99.90
75321;DHT22;68337;52.196;5.660;2023-03-30T03:55:56;12.80;99.90
75321;DHT22;68337;52.196;5.660;2023-03-30T03:58:22;12.80;99.90
75321;DHT22;68337;52.196;5.660;2023-03-30T04:00:49;12.80;99.90
75321;DHT22;68337;52.196;5.660;2023-03-30T04:03:15;12.70;99.90
75321;DHT22;68337;52.196;5.660;2023-03-30T04:05:41;12.80;99.90
75321;DHT22;68337;52.196;5.660;2023-03-30T04:08:07;12.80;99.90
75321;DHT22;68337;52.196;5.660;2023-03-30T04:10:36;12.80;99.90
75321;DHT22;68337;52.196;5.660;2023-03-30T04:13:03;12.90;99.90
75321;DHT22;68337;52.196;5.660;2023-03-30T04:15:29;12.80;99.90
75321;DHT22;68337;52.196;5.660;2023-03-30T04:17:54;12.80;99.90
75321;DHT22;68337;52.196;5.660;2023-03-30T04:20:27;12.90;99.90
75321;DHT22;68337;52.196;5.660;2023-03-30T04:22:53;12.90;99.90
75321;DHT22;68337;52.196;5.660;2023-03-30T04:25:20;12.90;99.90
75321;DHT22;68337;52.196;5.660;2023-03-30T04:27:47;12.90;99.90
75321;DHT22;68337;52.196;5.660;2023-03-30T04:30:16;12.90;99.90
75321;DHT22;68337;52.196;5.660;2023-03-30T04:32:43;13.00;99.90
75321;DHT22;68337;52.196;5.660;2023-03-30T04:35:09;13.00;99.90
75321;DHT22;68337;52.196;5.660;2023-03-30T04:37:35;12.90;99.90
75321;DHT22;68337;52.196;5.660;2023-03-30T04:40:04;13.00;99.90
75321;DHT22;68337;52.196;5.660;2023-03-30T04:42:34;13.00;99.90
75321;DHT22;68337;52.196;5.660;2023-03-30T04:45:08;13.10;99.90
75321;DHT22;68337;52.196;5.660;2023-03-30T04:47:37;13.10;99.90
75321;DHT22;68337;52.196;5.660;2023-03-30T04:50:03;13.00;99.90
75321;DHT22;68337;52.196;5.660;2023-03-30T04:52:29;13.10;99.90
75321;DHT22;68337;52.196;5.660;2023-03-30T04:54:55;13.00;99.90
75321;DHT22;68337;52.196;5.660;2023-03-30T04:57:20;13.00;99.90
75321;DHT22;68337;52.196;5.660;2023-03-30T04:59:46;13.00;99.90
75321;DHT22;68337;52.196;5.660;2023-03-30T05:02:12;13.00;99.90
75321;DHT22;68337;52.196;5.660;2023-03-30T05:04:40;12.90;99.90
75321;DHT22;68337;52.196;5.660;2023-03-30T05:07:06;13.00;99.90
75321;DHT22;68337;52.196;5.660;2023-03-30T05:09:33;12.90;99.90
75321;DHT22;68337;52.196;5.660;2023-03-30T05:11:59;12.90;99.90
75321;DHT22;68337;52.196;5.660;2023-03-30T05:14:25;12.90;99.90
75321;DHT22;68337;52.196;5.660;2023-03-30T05:16:51;12.80;99.90
75321;DHT22;68337;52.196;5.660;2023-03-30T05:19:17;12.80;99.90
75321;DHT22;68337;52.196;5.660;2023-03-30T05:21:44;12.70;99.90
75321;DHT22;68337;52.196;5.660;2023-03-30T05:24:13;12.70;99.90
75321;DHT22;68337;52.196;5.660;2023-03-30T05:26:39;12.70;99.90
75321;DHT22;68337;52.196;5.660;2023-03-30T05:29:04;12.60;99.90
75321;DHT22;68337;52.196;5.660;2023-03-30T05:31:31;12.60;99.90
75321;DHT22;68337;52.196;5.660;2023-03-30T05:33:56;12.60;99.90
75321;DHT22;68337;52.196;5.660;2023-03-30T05:36:22;12.60;99.90
75321;DHT22;68337;52.196;5.660;2023-03-30T05:38:48;12.60;99.90
75321;DHT22;68337;52.196;5.660;2023-03-30T05:41:14;12.60;99.90
75321;DHT22;68337;52.196;5.660;2023-03-30T05:43:41;12.60;99.90
75321;DHT22;68337;52.196;5.660;2023-03-30T05:46:07;12.50;99.90
75321;DHT22;68337;52.196;5.660;2023-03-30T05:48:32;12.50;99.90
75321;DHT22;68337;52.196;5.660;2023-03-30T05:50:58;12.40;99.90
75321;DHT22;68337;52.196;5.660;2023-03-30T05:53:24;12.30;99.90
75321;DHT22;68337;52.196;5.660;2023-03-30T05:55:50;12.30;99.90
75321;DHT22;68337;52.196;5.660;2023-03-30T05:58:16;12.30;99.90
75321;DHT22;68337;52.196;5.660;2023-03-30T06:00:42;12.20;99.90
75321;DHT22;68337;52.196;5.660;2023-03-30T06:03:09;12.30;99.90
75321;DHT22;68337;52.196;5.660;2023-03-30T06:05:39;12.40;99.90
75321;DHT22;68337;52.196;5.660;2023-03-30T06:08:07;12.40;99.90
75321;DHT22;68337;52.196;5.660;2023-03-30T06:10:33;12.40;99.90
75321;DHT22;68337;52.196;5.660;2023-03-30T06:13:00;12.40;99.90
75321;DHT22;68337;52.196;5.660;2023-03-30T06:15:26;12.50;99.90
75321;DHT22;68337;52.196;5.660;2023-03-30T06:17:52;12.60;99.90
75321;DHT22;68337;52.196;5.660;2023-03-30T06:20:18;12.60;99.90
75321;DHT22;68337;52.196;5.660;2023-03-30T06:22:46;12.60;99.90
75321;DHT22;68337;52.196;5.660;2023-03-30T06:25:12;12.60;99.90
75321;DHT22;68337;52.196;5.660;2023-03-30T06:27:38;12.60;99.90
75321;DHT22;68337;52.196;5.660;2023-03-30T06:30:04;12.60;99.90
75321;DHT22;68337;52.196;5.660;2023-03-30T06:32:30;12.50;99.90
75321;DHT22;68337;52.196;5.660;2023-03-30T06:34:56;12.50;99.90
75321;DHT22;68337;52.196;5.660;2023-03-30T06:37:22;12.50;99.90
75321;DHT22;68337;52.196;5.660;2023-03-30T06:39:47;12.50;99.90
75321;DHT22;68337;52.196;5.660;2023-03-30T06:42:13;12.60;99.90
75321;DHT22;68337;52.196;5.660;2023-03-30T06:44:39;12.60;99.90
75321;DHT22;68337;52.196;5.660;2023-03-30T06:47:05;12.70;99.90
75321;DHT22;68337;52.196;5.660;2023-03-30T06:49:31;12.80;99.90
75321;DHT22;68337;52.196;5.660;2023-03-30T06:51:57;12.80;99.90
75321;DHT22;68337;52.196;5.660;2023-03-30T06:54:23;12.90;99.90
75321;DHT22;68337;52.196;5.660;2023-03-30T06:56:49;12.90;99.90
75321;DHT22;68337;52.196;5.660;2023-03-30T06:59:17;12.90;99.90
75321;DHT22;68337;52.196;5.660;2023-03-30T07:01:43;13.00;99.90
75321;DHT22;68337;52.196;5.660;2023-03-30T07:04:09;13.00;99.90
75321;DHT22;68337;52.196;5.660;2023-03-30T07:06:35;13.10;99.90
75321;DHT22;68337;52.196;5.660;2023-03-30T07:09:02;13.10;99.90
75321;DHT22;68337;52.196;5.660;2023-03-30T07:11:30;13.10;99.90
75321;DHT22;68337;52.196;5.660;2023-03-30T07:13:56;13.10;99.90
75321;DHT22;68337;52.196;5.660;2023-03-30T07:16:24;13.10;99.90
75321;DHT22;68337;52.196;5.660;2023-03-30T07:18:50;13.20;99.90
75321;DHT22;68337;52.196;5.660;2023-03-30T07:21:17;13.10;99.90
75321;DHT22;68337;52.196;5.660;2023-03-30T07:23:43;13.10;99.90
75321;DHT22;68337;52.196;5.660;2023-03-30T07:26:09;13.20;99.90
75321;DHT22;68337;52.196;5.660;2023-03-30T07:28:35;13.00;99.90
75321;DHT22;68337;52.196;5.660;2023-03-30T07:31:06;13.00;99.90
75321;DHT22;68337;52.196;5.660;2023-03-30T07:33:32;13.00;99.90
75321;DHT22;68337;52.196;5.660;2023-03-30T07:35:57;12.90;99.90
75321;DHT22;68337;52.196;5.660;2023-03-30T07:38:23;13.00;99.90
75321;DHT22;68337;52.196;5.660;2023-03-30T07:40:49;13.00;99.90
75321;DHT22;68337;52.196;5.660;2023-03-30T07:43:15;12.90;99.90
75321;DHT22;68337;52.196;5.660;2023-03-30T07:45:40;13.00;99.90
75321;DHT22;68337;52.196;5.660;2023-03-30T07:48:06;13.00;99.90
75321;DHT22;68337;52.196;5.660;2023-03-30T07:50:32;13.10;99.90
75321;DHT22;68337;52.196;5.660;2023-03-30T07:52:58;13.30;99.90
75321;DHT22;68337;52.196;5.660;2023-03-30T07:55:24;13.50;99.90
75321;DHT22;68337;52.196;5.660;2023-03-30T07:57:50;13.50;99.90
75321;DHT22;68337;52.196;5.660;2023-03-30T08:00:15;13.70;99.90
75321;DHT22;68337;52.196;5.660;2023-03-30T08:02:42;13.80;99.90
75321;DHT22;68337;52.196;5.660;2023-03-30T08:05:09;13.80;99.90
75321;DHT22;68337;52.196;5.660;2023-03-30T08:07:36;13.90;99.90
75321;DHT22;68337;52.196;5.660;2023-03-30T08:10:03;14.00;99.90
75321;DHT22;68337;52.196;5.660;2023-03-30T08:12:29;14.10;99.90
75321;DHT22;68337;52.196;5.660;2023-03-30T08:14:55;13.90;99.90
75321;DHT22;68337;52.196;5.660;2023-03-30T08:17:21;14.00;99.90
75321;DHT22;68337;52.196;5.660;2023-03-30T08:19:47;13.80;99.90
75321;DHT22;68337;52.196;5.660;2023-03-30T08:22:13;13.80;99.90
75321;DHT22;68337;52.196;5.660;2023-03-30T08:24:39;13.70;99.90
75321;DHT22;68337;52.196;5.660;2023-03-30T08:27:05;13.60;99.90
75321;DHT22;68337;52.196;5.660;2023-03-30T08:29:31;13.50;99.90
75321;DHT22;68337;52.196;5.660;2023-03-30T08:31:58;13.50;99.90
75321;DHT22;68337;52.196;5.660;2023-03-30T08:34:25;13.60;99.90
75321;DHT22;68337;52.196;5.660;2023-03-30T08:36:51;13.60;99.90
75321;DHT22;68337;52.196;5.660;2023-03-30T08:39:16;13.50;99.90
75321;DHT22;68337;52.196;5.660;2023-03-30T08:42:06;13.50;99.90
75321;DHT22;68337;52.196;5.660;2023-03-30T08:44:41;13.50;99.90
75321;DHT22;68337;52.196;5.660;2023-03-30T08:47:16;13.60;99.90
75321;DHT22;68337;52.196;5.660;2023-03-30T08:50:05;13.80;99.90
75321;DHT22;68337;52.196;5.660;2023-03-30T08:52:33;13.80;99.90
75321;DHT22;68337;52.196;5.660;2023-03-30T08:55:00;13.80;99.90
75321;DHT22;68337;52.196;5.660;2023-03-30T08:57:30;13.70;99.90
75321;DHT22;68337;52.196;5.660;2023-03-30T09:00:15;13.70;99.90
75321;DHT22;68337;52.196;5.660;2023-03-30T09:02:50;13.80;99.90
75321;DHT22;68337;52.196;5.660;2023-03-30T09:05:37;13.60;99.90
75321;DHT22;68337;52.196;5.660;2023-03-30T09:08:15;13.60;99.90
75321;DHT22;68337;52.196;5.660;2023-03-30T09:10:46;13.50;99.90
75321;DHT22;68337;52.196;5.660;2023-03-30T09:13:18;13.50;99.90
75321;DHT22;68337;52.196;5.660;2023-03-30T09:16:02;13.60;99.90
75321;DHT22;68337;52.196;5.660;2023-03-30T09:18:32;13.80;99.90
75321;DHT22;68337;52.196;5.660;2023-03-30T09:21:03;13.80;99.90
75321;DHT22;68337;52.196;5.660;2023-03-30T09:23:31;13.80;99.90
75321;DHT22;68337;52.196;5.660;2023-03-30T09:31:46;14.60;99.90
75321;DHT22;68337;52.196;5.660;2023-03-30T09:37:08;16.00;99.90
75321;DHT22;68337;52.196;5.660;2023-03-30T09:39:35;15.80;99.90
75321;DHT22;68337;52.196;5.660;2023-03-30T09:42:10;16.00;99.90
75321;DHT22;68337;52.196;5.660;2023-03-30T09:44:49;16.00;99.90
75321;DHT22;68337;52.196;5.660;2023-03-30T09:49:48;16.00;99.90
75321;DHT22;68337;52.196;5.660;2023-03-30T09:52:21;15.60;99.90
75321;DHT22;68337;52.196;5.660;2023-03-30T09:54:48;15.50;99.90
75321;DHT22;68337;52.196;5.660;2023-03-30T09:57:28;15.50;99.90
75321;DHT22;68337;52.196;5.660;2023-03-30T09:59:55;15.50;99.90
75321;DHT22;68337;52.196;5.660;2023-03-30T10:02:23;15.30;99.90
75321;DHT22;68337;52.196;5.660;2023-03-30T10:09:50;15.10;99.90
75321;DHT22;68337;52.196;5.660;2023-03-30T10:12:16;15.10;99.90
75321;DHT22;68337;52.196;5.660;2023-03-30T10:14:42;15.40;99.90
75321;DHT22;68337;52.196;5.660;2023-03-30T10:17:18;15.40;99.90
75321;DHT22;68337;52.196;5.660;2023-03-30T10:19:45;15.40;99.90
75321;DHT22;68337;52.196;5.660;2023-03-30T10:22:15;15.20;99.90
75321;DHT22;68337;52.196;5.660;2023-03-30T10:24:55;15.20;99.90
75321;DHT22;68337;52.196;5.660;2023-03-30T10:27:30;15.10;99.90
75321;DHT22;68337;52.196;5.660;2023-03-30T10:30:08;14.90;99.90
75321;DHT22;68337;52.196;5.660;2023-03-30T10:32:35;15.00;99.90
75321;DHT22;68337;52.196;5.660;2023-03-30T10:35:07;15.00;99.90
75321;DHT22;68337;52.196;5.660;2023-03-30T10:37:39;15.10;99.90
75321;DHT22;68337;52.196;5.660;2023-03-30T10:40:20;15.20;99.90
75321;DHT22;68337;52.196;5.660;2023-03-30T10:42:54;15.70;99.90
75321;DHT22;68337;52.196;5.660;2023-03-30T10:45:47;16.10;99.90
75321;DHT22;68337;52.196;5.660;2023-03-30T10:51:03;15.80;99.90
75321;DHT22;68337;52.196;5.660;2023-03-30T10:56:42;15.70;99.90
75321;DHT22;68337;52.196;5.660;2023-03-30T11:04:10;15.60;99.90
75321;DHT22;68337;52.196;5.660;2023-03-30T11:06:42;15.50;99.90
75321;DHT22;68337;52.196;5.660;2023-03-30T11:09:22;15.60;99.90
75321;DHT22;68337;52.196;5.660;2023-03-30T11:12:18;15.80;99.90
75321;DHT22;68337;52.196;5.660;2023-03-30T11:14:56;15.70;99.90
75321;DHT22;68337;52.196;5.660;2023-03-30T11:17:38;15.50;99.90
75321;DHT22;68337;52.196;5.660;2023-03-30T11:20:42;15.40;99.90
75321;DHT22;68337;52.196;5.660;2023-03-30T11:23:32;15.40;99.90
75321;DHT22;68337;52.196;5.660;2023-03-30T11:26:06;15.50;99.90
75321;DHT22;68337;52.196;5.660;2023-03-30T11:29:01;16.10;99.90
75321;DHT22;68337;52.196;5.660;2023-03-30T11:37:12;15.90;99.90
75321;DHT22;68337;52.196;5.660;2023-03-30T11:39:48;15.80;99.90
75321;DHT22;68337;52.196;5.660;2023-03-30T11:42:22;16.60;99.90
75321;DHT22;68337;52.196;5.660;2023-03-30T11:44:49;16.80;99.90
75321;DHT22;68337;52.196;5.660;2023-03-30T11:53:08;16.50;99.90
75321;DHT22;68337;52.196;5.660;2023-03-30T11:55:50;16.60;99.90
75321;DHT22;68337;52.196;5.660;2023-03-30T11:58:25;16.50;99.90
75321;DHT22;68337;52.196;5.660;2023-03-30T12:03:52;16.30;99.90
75321;DHT22;68337;52.196;5.660;2023-03-30T12:06:41;16.40;99.90
75321;DHT22;68337;52.196;5.660;2023-03-30T12:20:30;15.50;99.90
75321;DHT22;68337;52.196;5.660;2023-03-30T12:29:00;16.60;99.90
75321;DHT22;68337;52.196;5.660;2023-03-30T12:34:36;17.40;99.90
75321;DHT22;68337;52.196;5.660;2023-03-30T12:39:55;17.10;99.90
75321;DHT22;68337;52.196;5.660;2023-03-30T12:42:24;16.90;99.90
75321;DHT22;68337;52.196;5.660;2023-03-30T12:45:10;16.80;99.90
75321;DHT22;68337;52.196;5.660;2023-03-30T12:52:57;16.80;99.90
75321;DHT22;68337;52.196;5.660;2023-03-30T12:58:47;16.70;99.90
75321;DHT22;68337;52.196;5.660;2023-03-30T13:03:58;16.40;99.90
75321;DHT22;68337;52.196;5.660;2023-03-30T13:06:32;16.50;99.90
75321;DHT22;68337;52.196;5.660;2023-03-30T13:25:01;15.40;99.90
75321;DHT22;68337;52.196;5.660;2023-03-30T13:27:33;15.30;99.90
75321;DHT22;68337;52.196;5.660;2023-03-30T13:33:07;15.40;99.90
75321;DHT22;68337;52.196;5.660;2023-03-30T13:38:27;15.30;99.90
75321;DHT22;68337;52.196;5.660;2023-03-30T13:51:53;14.90;99.90
75321;DHT22;68337;52.196;5.660;2023-03-30T13:54:28;15.10;99.90
75321;DHT22;68337;52.196;5.660;2023-03-30T13:57:10;15.40;99.90
75321;DHT22;68337;52.196;5.660;2023-03-30T13:59:44;15.50;99.90
75321;DHT22;68337;52.196;5.660;2023-03-30T14:02:15;15.80;99.90
75321;DHT22;68337;52.196;5.660;2023-03-30T14:04:42;15.60;99.90
75321;DHT22;68337;52.196;5.660;2023-03-30T14:07:22;15.60;99.90
75321;DHT22;68337;52.196;5.660;2023-03-30T14:10:13;15.70;99.90
75321;DHT22;68337;52.196;5.660;2023-03-30T14:12:41;16.00;99.90
75321;DHT22;68337;52.196;5.660;2023-03-30T14:15:30;16.20;99.90
75321;DHT22;68337;52.196;5.660;2023-03-30T14:17:58;15.80;99.90
75321;DHT22;68337;52.196;5.660;2023-03-30T14:20:48;16.10;99.90
75321;DHT22;68337;52.196;5.660;2023-03-30T14:26:27;16.10;99.90
75321;DHT22;68337;52.196;5.660;2023-03-30T14:28:55;16.10;99.90
75321;DHT22;68337;52.196;5.660;2023-03-30T14:31:21;16.00;99.90
75321;DHT22;68337;52.196;5.660;2023-03-30T14:33:48;15.90;99.90
75321;DHT22;68337;52.196;5.660;2023-03-30T14:36:18;15.90;99.90
75321;DHT22;68337;52.196;5.660;2023-03-30T14:38:47;16.00;99.90
75321;DHT22;68337;52.196;5.660;2023-03-30T14:41:25;15.90;99.90
75321;DHT22;68337;52.196;5.660;2023-03-30T14:44:00;15.90;99.90
75321;DHT22;68337;52.196;5.660;2023-03-30T14:46:47;15.80;99.90
75321;DHT22;68337;52.196;5.660;2023-03-30T14:49:23;16.00;99.90
75321;DHT22;68337;52.196;5.660;2023-03-30T14:51:51;16.10;99.90
75321;DHT22;68337;52.196;5.660;2023-03-30T14:54:21;16.00;99.90
75321;DHT22;68337;52.196;5.660;2023-03-30T14:56:59;16.10;99.90
75321;DHT22;68337;52.196;5.660;2023-03-30T14:59:27;16.10;99.90
75321;DHT22;68337;52.196;5.660;2023-03-30T15:01:54;16.10;99.90
75321;DHT22;68337;52.196;5.660;2023-03-30T15:04:23;16.10;99.90
75321;DHT22;68337;52.196;5.660;2023-03-30T15:06:50;16.20;99.90
75321;DHT22;68337;52.196;5.660;2023-03-30T15:09:20;16.10;99.90
75321;DHT22;68337;52.196;5.660;2023-03-30T15:11:51;16.00;99.90
75321;DHT22;68337;52.196;5.660;2023-03-30T15:14:20;16.00;99.90
75321;DHT22;68337;52.196;5.660;2023-03-30T15:16:49;16.00;99.90
75321;DHT22;68337;52.196;5.660;2023-03-30T15:21:50;15.90;99.90
75321;DHT22;68337;52.196;5.660;2023-03-30T15:24:23;15.80;99.90
75321;DHT22;68337;52.196;5.660;2023-03-30T15:26:54;15.70;99.90
75321;DHT22;68337;52.196;5.660;2023-03-30T15:29:22;15.80;99.90
75321;DHT22;68337;52.196;5.660;2023-03-30T15:32:05;15.80;99.90
75321;DHT22;68337;52.196;5.660;2023-03-30T15:34:32;15.60;99.90
75321;DHT22;68337;52.196;5.660;2023-03-30T15:36:58;15.50;99.90
75321;DHT22;68337;52.196;5.660;2023-03-30T15:39:26;15.60;99.90
75321;DHT22;68337;52.196;5.660;2023-03-30T15:44:26;15.80;99.90
75321;DHT22;68337;52.196;5.660;2023-03-30T15:46:56;15.60;99.90
75321;DHT22;68337;52.196;5.660;2023-03-30T15:49:28;15.60;99.90
75321;DHT22;68337;52.196;5.660;2023-03-30T15:51:58;15.50;99.90
75321;DHT22;68337;52.196;5.660;2023-03-30T15:54:32;15.40;99.90
75321;DHT22;68337;52.196;5.660;2023-03-30T15:57:05;15.50;99.90
75321;DHT22;68337;52.196;5.660;2023-03-30T16:00:03;15.50;99.90
75321;DHT22;68337;52.196;5.660;2023-03-30T16:02:39;15.40;99.90
75321;DHT22;68337;52.196;5.660;2023-03-30T16:05:07;15.40;99.90
75321;DHT22;68337;52.196;5.660;2023-03-30T16:07:40;15.30;99.90
75321;DHT22;68337;52.196;5.660;2023-03-30T16:10:12;15.30;99.90
75321;DHT22;68337;52.196;5.660;2023-03-30T16:12:42;15.40;99.90
75321;DHT22;68337;52.196;5.660;2023-03-30T16:15:17;15.40;99.90
75321;DHT22;68337;52.196;5.660;2023-03-30T16:17:43;15.40;99.90
75321;DHT22;68337;52.196;5.660;2023-03-30T16:20:18;15.60;99.90
75321;DHT22;68337;52.196;5.660;2023-03-30T16:22:44;15.60;99.90
75321;DHT22;68337;52.196;5.660;2023-03-30T16:25:12;15.70;99.90
75321;DHT22;68337;52.196;5.660;2023-03-30T16:27:38;15.50;99.90
75321;DHT22;68337;52.196;5.660;2023-03-30T16:30:34;15.60;99.90
75321;DHT22;68337;52.196;5.660;2023-03-30T16:33:01;15.60;99.90
75321;DHT22;68337;52.196;5.660;2023-03-30T16:35:26;15.50;99.90
75321;DHT22;68337;52.196;5.660;2023-03-30T16:37:52;15.60;99.90
75321;DHT22;68337;52.196;5.660;2023-03-30T16:40:37;15.50;99.90
75321;DHT22;68337;52.196;5.660;2023-03-30T16:43:06;15.70;99.90
75321;DHT22;68337;52.196;5.660;2023-03-30T16:45:32;15.60;99.90
75321;DHT22;68337;52.196;5.660;2023-03-30T16:47:58;15.50;99.90
75321;DHT22;68337;52.196;5.660;2023-03-30T16:50:44;15.40;99.90
75321;DHT22;68337;52.196;5.660;2023-03-30T16:53:11;15.50;99.90
75321;DHT22;68337;52.196;5.660;2023-03-30T16:55:40;15.30;99.90
75321;DHT22;68337;52.196;5.660;2023-03-30T16:58:07;15.20;99.90
75321;DHT22;68337;52.196;5.660;2023-03-30T17:00:41;15.10;99.90
75321;DHT22;68337;52.196;5.660;2023-03-30T17:03:07;15.00;99.90
75321;DHT22;68337;52.196;5.660;2023-03-30T17:05:34;15.00;99.90
75321;DHT22;68337;52.196;5.660;2023-03-30T17:08:15;14.90;99.90
75321;DHT22;68337;52.196;5.660;2023-03-30T17:10:42;14.80;99.90
75321;DHT22;68337;52.196;5.660;2023-03-30T17:13:08;14.70;99.90
75321;DHT22;68337;52.196;5.660;2023-03-30T17:15:35;14.60;99.90
75321;DHT22;68337;52.196;5.660;2023-03-30T17:18:04;14.50;99.90
75321;DHT22;68337;52.196;5.660;2023-03-30T17:20:38;14.40;99.90
75321;DHT22;68337;52.196;5.660;2023-03-30T17:23:05;14.40;99.90
75321;DHT22;68337;52.196;5.660;2023-03-30T17:25:32;14.30;99.90
75321;DHT22;68337;52.196;5.660;2023-03-30T17:28:01;14.20;99.90
75321;DHT22;68337;52.196;5.660;2023-03-30T17:30:36;14.10;99.90
75321;DHT22;68337;52.196;5.660;2023-03-30T17:33:05;14.10;99.90
75321;DHT22;68337;52.196;5.660;2023-03-30T17:35:35;14.10;99.90
75321;DHT22;68337;52.196;5.660;2023-03-30T17:38:03;14.10;99.90
75321;DHT22;68337;52.196;5.660;2023-03-30T17:40:30;14.00;99.90
75321;DHT22;68337;52.196;5.660;2023-03-30T17:42:56;13.90;99.90
75321;DHT22;68337;52.196;5.660;2023-03-30T17:45:25;13.90;99.90
75321;DHT22;68337;52.196;5.660;2023-03-30T17:47:53;13.90;99.90
75321;DHT22;68337;52.196;5.660;2023-03-30T17:50:21;13.80;99.90
75321;DHT22;68337;52.196;5.660;2023-03-30T17:52:48;13.70;99.90
75321;DHT22;68337;52.196;5.660;2023-03-30T17:55:15;13.60;99.90
75321;DHT22;68337;52.196;5.660;2023-03-30T17:57:41;13.50;99.90
75321;DHT22;68337;52.196;5.660;2023-03-30T18:00:29;13.50;99.90
75321;DHT22;68337;52.196;5.660;2023-03-30T18:02:55;13.50;99.90
75321;DHT22;68337;52.196;5.660;2023-03-30T18:05:23;13.40;99.90
75321;DHT22;68337;52.196;5.660;2023-03-30T18:07:50;13.30;99.90
75321;DHT22;68337;52.196;5.660;2023-03-30T18:10:19;13.20;99.90
75321;DHT22;68337;52.196;5.660;2023-03-30T18:12:45;13.20;99.90
75321;DHT22;68337;52.196;5.660;2023-03-30T18:15:12;13.10;99.90
75321;DHT22;68337;52.196;5.660;2023-03-30T18:17:38;13.10;99.90
75321;DHT22;68337;52.196;5.660;2023-03-30T18:20:26;13.10;99.90
75321;DHT22;68337;52.196;5.660;2023-03-30T18:22:53;13.10;99.90
75321;DHT22;68337;52.196;5.660;2023-03-30T18:25:19;13.00;99.90
75321;DHT22;68337;52.196;5.660;2023-03-30T18:27:51;12.90;99.90
75321;DHT22;68337;52.196;5.660;2023-03-30T18:30:36;12.80;99.90